sensor_id;sensor_type;location;lat;lon;timestamp;pressure;altitude;pressure_sealevel;temperature;humidity
64821;BME280;51256;55.654;37.264;2022-10-29T00:01:52;99216.81;;;9.51;83.07
64821;BME280;51256;55.654;37.264;2022-10-29T00:04:17;99219.63;;;9.50;83.31
64821;BME280;51256;55.654;37.264;2022-10-29T00:06:43;99222.13;;;9.51;83.32
64821;BME280;51256;55.654;37.264;2022-10-29T00:09:09;99215.19;;;9.50;83.51
64821;BME280;51256;55.654;37.264;2022-10-29T00:11:34;99223.94;;;9.51;83.64
64821;BME280;51256;55.654;37.264;2022-10-29T00:14:00;99222.13;;;9.51;83.19
64821;BME280;51256;55.654;37.264;2022-10-29T00:16:28;99221.44;;;9.49;83.27
64821;BME280;51256;55.654;37.264;2022-10-29T00:18:55;99225.06;;;9.48;83.08
64821;BME280;51256;55.654;37.264;2022-10-29T00:21:23;99221.72;;;9.46;83.14
64821;BME280;51256;55.654;37.264;2022-10-29T00:23:50;99216.81;;;9.51;83.30
64821;BME280;51256;55.654;37.264;2022-10-29T00:26:16;99220.03;;;9.55;82.62
64821;BME280;51256;55.654;37.264;2022-10-29T00:28:45;99220.88;;;9.55;83.17
64821;BME280;51256;55.654;37.264;2022-10-29T00:31:15;99219.06;;;9.56;82.94
64821;BME280;51256;55.654;37.264;2022-10-29T00:33:42;99217.69;;;9.52;82.80
64821;BME280;51256;55.654;37.264;2022-10-29T00:36:13;99219.47;;;9.51;82.91
64821;BME280;51256;55.654;37.264;2022-10-29T00:38:39;99216.16;;;9.49;83.27
64821;BME280;51256;55.654;37.264;2022-10-29T00:41:06;99214.31;;;9.50;82.97
64821;BME280;51256;55.654;37.264;2022-10-29T00:43:34;99211.66;;;9.50;82.72
64821;BME280;51256;55.654;37.264;2022-10-29T00:46:10;99207.06;;;9.52;83.10
64821;BME280;51256;55.654;37.264;2022-10-29T00:48:42;99202.59;;;9.52;82.41
64821;BME280;51256;55.654;37.264;2022-10-29T00:51:11;99193.97;;;9.50;82.52
64821;BME280;51256;55.654;37.264;2022-10-29T00:53:42;99200.94;;;9.51;82.59
64821;BME280;51256;55.654;37.264;2022-10-29T00:56:10;99198.97;;;9.53;82.61
64821;BME280;51256;55.654;37.264;2022-10-29T00:58:37;99190.75;;;9.56;82.58
64821;BME280;51256;55.654;37.264;2022-10-29T01:01:03;99183.63;;;9.57;82.95
64821;BME280;51256;55.654;37.264;2022-10-29T01:03:29;99192.13;;;9.61;82.28
64821;BME280;51256;55.654;37.264;2022-10-29T01:05:55;99184.44;;;9.57;82.69
64821;BME280;51256;55.654;37.264;2022-10-29T01:08:21;99188.50;;;9.62;82.40
64821;BME280;51256;55.654;37.264;2022-10-29T01:32:17;99153.63;;;9.09;82.57
64821;BME280;51256;55.654;37.264;2022-10-29T01:35:00;99151.13;;;9.07;83.25
64821;BME280;51256;55.654;37.264;2022-10-29T01:40:23;99144.16;;;9.06;83.07
64821;BME280;51256;55.654;37.264;2022-10-29T01:43:13;99142.59;;;9.14;83.08
64821;BME280;51256;55.654;37.264;2022-10-29T01:45:44;99135.75;;;9.21;83.27
64821;BME280;51256;55.654;37.264;2022-10-29T01:48:15;99133.09;;;9.31;82.93
64821;BME280;51256;55.654;37.264;2022-10-29T01:50:46;99135.56;;;9.42;82.60
64821;BME280;51256;55.654;37.264;2022-10-29T01:53:15;99127.31;;;9.45;82.48
64821;BME280;51256;55.654;37.264;2022-10-29T01:55:40;99135.13;;;9.47;82.46
64821;BME280;51256;55.654;37.264;2022-10-29T01:58:06;99143.63;;;9.50;82.11
64821;BME280;51256;55.654;37.264;2022-10-29T02:00:39;99137.06;;;9.54;82.07
64821;BME280;51256;55.654;37.264;2022-10-29T02:03:19;99133.44;;;9.55;82.01
64821;BME280;51256;55.654;37.264;2022-10-29T02:08:28;99121.41;;;9.51;81.87
64821;BME280;51256;55.654;37.264;2022-10-29T02:11:21;99119.78;;;9.50;81.77
64821;BME280;51256;55.654;37.264;2022-10-29T02:13:52;99106.84;;;9.37;81.91
64821;BME280;51256;55.654;37.264;2022-10-29T02:16:21;99115.88;;;9.45;82.07
64821;BME280;51256;55.654;37.264;2022-10-29T02:18:49;99112.69;;;9.41;82.27
64821;BME280;51256;55.654;37.264;2022-10-29T02:21:18;99108.28;;;9.32;81.57
64821;BME280;51256;55.654;37.264;2022-10-29T02:23:44;99096.56;;;9.24;82.30
64821;BME280;51256;55.654;37.264;2022-10-29T02:26:10;99106.03;;;9.27;82.34
64821;BME280;51256;55.654;37.264;2022-10-29T02:28:36;99102.84;;;9.23;82.11
64821;BME280;51256;55.654;37.264;2022-10-29T02:31:01;99106.34;;;9.24;82.32
64821;BME280;51256;55.654;37.264;2022-10-29T02:33:27;99099.53;;;9.21;82.12
64821;BME280;51256;55.654;37.264;2022-10-29T02:35:52;99101.16;;;9.22;82.29
64821;BME280;51256;55.654;37.264;2022-10-29T02:38:18;99103.81;;;9.22;82.08
64821;BME280;51256;55.654;37.264;2022-10-29T02:40:43;99088.94;;;9.21;82.44
64821;BME280;51256;55.654;37.264;2022-10-29T02:43:09;99095.75;;;9.24;82.51
64821;BME280;51256;55.654;37.264;2022-10-29T02:45:34;99080.13;;;9.21;82.50
64821;BME280;51256;55.654;37.264;2022-10-29T02:48:00;99091.91;;;9.36;82.13
64821;BME280;51256;55.654;37.264;2022-10-29T02:50:25;99091.34;;;9.43;82.30
64821;BME280;51256;55.654;37.264;2022-10-29T02:52:51;99083.53;;;9.41;82.26
64821;BME280;51256;55.654;37.264;2022-10-29T02:55:16;99090.91;;;9.47;81.83
64821;BME280;51256;55.654;37.264;2022-10-29T02:57:43;99084.91;;;9.45;82.02
64821;BME280;51256;55.654;37.264;2022-10-29T03:00:09;99083.53;;;9.41;81.87
64821;BME280;51256;55.654;37.264;2022-10-29T03:02:35;99079.09;;;9.41;81.81
64821;BME280;51256;55.654;37.264;2022-10-29T03:05:01;99074.06;;;9.38;82.43
64821;BME280;51256;55.654;37.264;2022-10-29T03:07:26;99080.75;;;9.43;82.63
64821;BME280;51256;55.654;37.264;2022-10-29T03:09:52;99075.31;;;9.44;82.10
64821;BME280;51256;55.654;37.264;2022-10-29T03:12:17;99070.69;;;9.46;82.61
64821;BME280;51256;55.654;37.264;2022-10-29T03:14:43;99063.44;;;9.48;82.54
64821;BME280;51256;55.654;37.264;2022-10-29T03:17:08;99054.34;;;9.51;81.78
64821;BME280;51256;55.654;37.264;2022-10-29T03:19:34;99059.06;;;9.57;81.89
64821;BME280;51256;55.654;37.264;2022-10-29T03:22:02;99041.50;;;9.56;81.45
64821;BME280;51256;55.654;37.264;2022-10-29T03:24:27;99054.16;;;9.62;82.01
64821;BME280;51256;55.654;37.264;2022-10-29T03:26:53;99049.81;;;9.61;82.49
64821;BME280;51256;55.654;37.264;2022-10-29T03:29:18;99040.09;;;9.62;81.98
64821;BME280;51256;55.654;37.264;2022-10-29T03:31:44;99045.06;;;9.65;81.77
64821;BME280;51256;55.654;37.264;2022-10-29T03:34:09;99031.66;;;9.66;82.43
64821;BME280;51256;55.654;37.264;2022-10-29T03:36:35;99035.16;;;9.67;81.66
64821;BME280;51256;55.654;37.264;2022-10-29T03:39:00;99016.34;;;9.60;81.64
64821;BME280;51256;55.654;37.264;2022-10-29T03:41:26;99031.13;;;9.63;82.07
64821;BME280;51256;55.654;37.264;2022-10-29T03:43:51;99031.81;;;9.65;82.03
64821;BME280;51256;55.654;37.264;2022-10-29T03:46:16;99029.88;;;9.67;82.08
64821;BME280;51256;55.654;37.264;2022-10-29T03:48:42;99010.34;;;9.68;81.53
64821;BME280;51256;55.654;37.264;2022-10-29T03:51:09;99020.63;;;9.71;82.00
64821;BME280;51256;55.654;37.264;2022-10-29T03:53:35;99009.63;;;9.66;81.90
64821;BME280;51256;55.654;37.264;2022-10-29T03:56:02;99021.47;;;9.71;81.62
64821;BME280;51256;55.654;37.264;2022-10-29T03:58:28;99015.63;;;9.68;82.11
64821;BME280;51256;55.654;37.264;2022-10-29T04:01:04;99015.63;;;9.68;81.56
64821;BME280;51256;55.654;37.264;2022-10-29T04:03:32;99007.16;;;9.64;81.61
64821;BME280;51256;55.654;37.264;2022-10-29T04:05:59;99005.03;;;9.68;81.43
64821;BME280;51256;55.654;37.264;2022-10-29T04:08:25;98999.72;;;9.68;81.75
64821;BME280;51256;55.654;37.264;2022-10-29T04:10:51;99000.56;;;9.68;81.41
64821;BME280;51256;55.654;37.264;2022-10-29T04:13:18;98996.53;;;9.64;81.18
64821;BME280;51256;55.654;37.264;2022-10-29T04:15:43;98993.41;;;9.69;81.72
64821;BME280;51256;55.654;37.264;2022-10-29T04:18:10;98982.00;;;9.68;81.27
64821;BME280;51256;55.654;37.264;2022-10-29T04:20:37;98975.72;;;9.69;81.66
64821;BME280;51256;55.654;37.264;2022-10-29T04:23:02;98971.41;;;9.68;82.05
64821;BME280;51256;55.654;37.264;2022-10-29T04:25:28;98963.00;;;9.73;81.41
64821;BME280;51256;55.654;37.264;2022-10-29T04:27:54;98967.78;;;9.69;81.04
64821;BME280;51256;55.654;37.264;2022-10-29T04:30:21;98963.59;;;9.67;81.94
64821;BME280;51256;55.654;37.264;2022-10-29T04:32:47;98961.78;;;9.67;81.57
64821;BME280;51256;55.654;37.264;2022-10-29T04:35:12;98962.63;;;9.68;81.49
64821;BME280;51256;55.654;37.264;2022-10-29T04:37:37;98966.41;;;9.65;81.15
64821;BME280;51256;55.654;37.264;2022-10-29T04:40:03;98962.63;;;9.68;81.85
64821;BME280;51256;55.654;37.264;2022-10-29T04:42:34;98956.84;;;9.72;81.04
64821;BME280;51256;55.654;37.264;2022-10-29T04:45:00;98952.41;;;9.73;80.83
64821;BME280;51256;55.654;37.264;2022-10-29T04:47:25;98949.59;;;9.74;81.05
64821;BME280;51256;55.654;37.264;2022-10-29T04:49:51;98938.81;;;9.76;80.97
64821;BME280;51256;55.654;37.264;2022-10-29T04:52:16;98943.97;;;9.78;80.97
64821;BME280;51256;55.654;37.264;2022-10-29T04:54:41;98931.56;;;9.78;81.15
64821;BME280;51256;55.654;37.264;2022-10-29T04:57:07;98928.97;;;9.86;81.08
64821;BME280;51256;55.654;37.264;2022-10-29T04:59:32;98938.31;;;9.90;81.01
64821;BME280;51256;55.654;37.264;2022-10-29T05:01:58;98939.13;;;9.91;81.00
64821;BME280;51256;55.654;37.264;2022-10-29T05:04:23;98928.00;;;9.87;81.08
64821;BME280;51256;55.654;37.264;2022-10-29T05:06:49;98928.84;;;9.88;80.93
64821;BME280;51256;55.654;37.264;2022-10-29T05:09:14;98927.63;;;9.82;80.74
64821;BME280;51256;55.654;37.264;2022-10-29T05:11:39;98930.81;;;9.86;81.08
64821;BME280;51256;55.654;37.264;2022-10-29T05:14:05;98923.53;;;9.88;81.47
64821;BME280;51256;55.654;37.264;2022-10-29T05:16:30;98927.69;;;9.90;80.94
64821;BME280;51256;55.654;37.264;2022-10-29T05:18:56;98918.06;;;9.89;80.94
64821;BME280;51256;55.654;37.264;2022-10-29T05:21:22;98920.72;;;9.89;80.67
64821;BME280;51256;55.654;37.264;2022-10-29T05:23:47;98919.91;;;9.89;80.94
64821;BME280;51256;55.654;37.264;2022-10-29T05:26:13;98913.75;;;9.88;80.68
64821;BME280;51256;55.654;37.264;2022-10-29T05:28:38;98909.59;;;9.86;81.08
64821;BME280;51256;55.654;37.264;2022-10-29T05:31:04;98912.94;;;9.88;80.65
64821;BME280;51256;55.654;37.264;2022-10-29T05:33:29;98904.97;;;9.88;80.51
64821;BME280;51256;55.654;37.264;2022-10-29T05:35:55;98898.97;;;9.86;80.35
64821;BME280;51256;55.654;37.264;2022-10-29T05:38:20;98894.38;;;9.88;80.79
64821;BME280;51256;55.654;37.264;2022-10-29T05:40:45;98900.34;;;9.90;80.91
64821;BME280;51256;55.654;37.264;2022-10-29T05:43:12;98901.34;;;9.89;80.51
64821;BME280;51256;55.654;37.264;2022-10-29T05:45:38;98899.69;;;9.88;80.90
64821;BME280;51256;55.654;37.264;2022-10-29T05:48:04;98903.16;;;9.88;80.39
64821;BME280;51256;55.654;37.264;2022-10-29T05:50:31;98898.69;;;9.89;80.28
64821;BME280;51256;55.654;37.264;2022-10-29T05:52:58;98899.19;;;9.93;80.74
64821;BME280;51256;55.654;37.264;2022-10-29T05:55:23;98890.25;;;9.94;80.52
64821;BME280;51256;55.654;37.264;2022-10-29T05:57:49;98892.91;;;9.94;80.09
64821;BME280;51256;55.654;37.264;2022-10-29T06:00:15;98896.25;;;9.96;79.75
64821;BME280;51256;55.654;37.264;2022-10-29T06:02:44;98895.25;;;9.97;80.36
64821;BME280;51256;55.654;37.264;2022-10-29T06:05:10;98889.47;;;10.01;80.41
64821;BME280;51256;55.654;37.264;2022-10-29T06:07:35;98879.03;;;10.00;80.32
64821;BME280;51256;55.654;37.264;2022-10-29T06:10:01;98873.19;;;9.96;79.61
64821;BME280;51256;55.654;37.264;2022-10-29T06:12:26;98888.66;;;10.01;80.66
64821;BME280;51256;55.654;37.264;2022-10-29T06:14:51;98884.03;;;10.03;80.32
64821;BME280;51256;55.654;37.264;2022-10-29T06:17:17;98883.03;;;10.04;80.46
64821;BME280;51256;55.654;37.264;2022-10-29T06:19:42;98880.78;;;10.09;80.21
64821;BME280;51256;55.654;37.264;2022-10-29T06:22:08;98877.78;;;10.12;79.90
64821;BME280;51256;55.654;37.264;2022-10-29T06:24:33;98872.81;;;10.09;80.09
64821;BME280;51256;55.654;37.264;2022-10-29T06:26:59;98857.53;;;10.03;80.33
64821;BME280;51256;55.654;37.264;2022-10-29T06:29:24;98864.84;;;10.09;79.68
64821;BME280;51256;55.654;37.264;2022-10-29T06:31:50;98860.53;;;10.08;80.05
64821;BME280;51256;55.654;37.264;2022-10-29T06:34:15;98860.00;;;10.04;80.08
64821;BME280;51256;55.654;37.264;2022-10-29T06:36:41;98864.00;;;10.09;80.22
64821;BME280;51256;55.654;37.264;2022-10-29T06:39:06;98843.84;;;10.16;79.75
64821;BME280;51256;55.654;37.264;2022-10-29T06:41:32;98843.91;;;10.24;79.70
64821;BME280;51256;55.654;37.264;2022-10-29T06:43:57;98850.84;;;10.25;79.49
64821;BME280;51256;55.654;37.264;2022-10-29T06:46:22;98848.53;;;10.30;79.37
64821;BME280;51256;55.654;37.264;2022-10-29T06:48:48;98835.09;;;10.23;79.17
64821;BME280;51256;55.654;37.264;2022-10-29T06:51:13;98829.47;;;10.27;79.66
64821;BME280;51256;55.654;37.264;2022-10-29T06:53:39;98843.91;;;10.24;79.46
64821;BME280;51256;55.654;37.264;2022-10-29T06:56:04;98839.41;;;10.25;78.99
64821;BME280;51256;55.654;37.264;2022-10-29T06:58:30;98824.19;;;10.27;79.67
64821;BME280;51256;55.654;37.264;2022-10-29T07:00:55;98825.00;;;10.27;79.36
64821;BME280;51256;55.654;37.264;2022-10-29T07:03:23;98829.84;;;10.32;79.27
64821;BME280;51256;55.654;37.264;2022-10-29T07:05:57;98816.34;;;10.25;79.60
64821;BME280;51256;55.654;37.264;2022-10-29T07:08:24;98807.75;;;10.23;79.19
64821;BME280;51256;55.654;37.264;2022-10-29T07:10:51;98815.53;;;10.25;79.64
64821;BME280;51256;55.654;37.264;2022-10-29T07:13:16;98815.53;;;10.25;79.54
64821;BME280;51256;55.654;37.264;2022-10-29T07:15:42;98810.53;;;10.21;79.36
64821;BME280;51256;55.654;37.264;2022-10-29T07:18:08;98809.88;;;10.19;79.50
64821;BME280;51256;55.654;37.264;2022-10-29T07:20:39;98802.22;;;10.16;79.03
64821;BME280;51256;55.654;37.264;2022-10-29T07:23:05;98798.28;;;10.20;79.76
64821;BME280;51256;55.654;37.264;2022-10-29T07:25:31;98794.47;;;10.23;79.69
64821;BME280;51256;55.654;37.264;2022-10-29T07:28:04;98794.63;;;10.21;79.10
64821;BME280;51256;55.654;37.264;2022-10-29T07:30:30;98783.00;;;10.14;79.04
64821;BME280;51256;55.654;37.264;2022-10-29T07:32:56;98788.94;;;10.08;79.40
64821;BME280;51256;55.654;37.264;2022-10-29T07:35:21;98783.41;;;10.01;79.75
64821;BME280;51256;55.654;37.264;2022-10-29T07:37:47;98779.41;;;9.97;79.92
64821;BME280;51256;55.654;37.264;2022-10-29T07:40:12;98773.75;;;9.92;79.86
64821;BME280;51256;55.654;37.264;2022-10-29T07:42:38;98777.38;;;9.91;80.68
64821;BME280;51256;55.654;37.264;2022-10-29T07:45:04;98774.91;;;9.89;80.40
64821;BME280;51256;55.654;37.264;2022-10-29T07:47:29;98759.63;;;9.83;80.76
64821;BME280;51256;55.654;37.264;2022-10-29T07:49:55;98755.47;;;9.81;80.59
64821;BME280;51256;55.654;37.264;2022-10-29T07:52:20;98758.13;;;9.81;80.27
64821;BME280;51256;55.654;37.264;2022-10-29T07:54:46;98748.50;;;9.80;80.83
64821;BME280;51256;55.654;37.264;2022-10-29T07:57:11;98751.66;;;9.83;80.76
64821;BME280;51256;55.654;37.264;2022-10-29T07:59:37;98751.19;;;9.88;80.64
64821;BME280;51256;55.654;37.264;2022-10-29T08:02:02;98753.69;;;9.89;80.92
64821;BME280;51256;55.654;37.264;2022-10-29T08:04:27;98746.03;;;9.86;80.57
64821;BME280;51256;55.654;37.264;2022-10-29T08:06:53;98750.34;;;9.87;81.25
64821;BME280;51256;55.654;37.264;2022-10-29T08:09:18;98745.06;;;9.87;81.30
64821;BME280;51256;55.654;37.264;2022-10-29T08:11:44;98742.25;;;9.89;81.81
64821;BME280;51256;55.654;37.264;2022-10-29T08:14:09;98745.09;;;9.96;81.63
64821;BME280;51256;55.654;37.264;2022-10-29T08:16:36;98734.34;;;9.97;80.95
64821;BME280;51256;55.654;37.264;2022-10-29T08:19:02;98735.47;;;9.95;82.13
64821;BME280;51256;55.654;37.264;2022-10-29T08:21:27;98743.38;;;9.86;81.87
64821;BME280;51256;55.654;37.264;2022-10-29T08:23:53;98730.28;;;9.85;82.85
64821;BME280;51256;55.654;37.264;2022-10-29T08:26:18;98738.41;;;9.83;82.38
64821;BME280;51256;55.654;37.264;2022-10-29T08:28:44;98731.44;;;9.82;82.31
64821;BME280;51256;55.654;37.264;2022-10-29T08:31:09;98739.41;;;9.82;82.73
64821;BME280;51256;55.654;37.264;2022-10-29T08:33:35;98720.31;;;9.79;82.54
64821;BME280;51256;55.654;37.264;2022-10-29T08:36:01;98728.75;;;9.74;83.27
64821;BME280;51256;55.654;37.264;2022-10-29T08:38:26;98710.97;;;9.66;83.74
64821;BME280;51256;55.654;37.264;2022-10-29T08:46:48;98705.31;;;9.61;84.62
64821;BME280;51256;55.654;37.264;2022-10-29T08:49:26;98701.22;;;9.67;84.76
64821;BME280;51256;55.654;37.264;2022-10-29T08:52:02;98698.56;;;9.67;84.74
64821;BME280;51256;55.654;37.264;2022-10-29T08:54:30;98698.25;;;9.70;84.93
64821;BME280;51256;55.654;37.264;2022-10-29T08:57:04;98684.34;;;9.68;85.83
64821;BME280;51256;55.654;37.264;2022-10-29T08:59:35;98679.69;;;9.70;85.02
64821;BME280;51256;55.654;37.264;2022-10-29T09:02:13;98674.09;;;9.81;85.38
64821;BME280;51256;55.654;37.264;2022-10-29T09:04:40;98672.47;;;9.80;85.20
64821;BME280;51256;55.654;37.264;2022-10-29T09:07:35;98659.56;;;9.85;85.03
64821;BME280;51256;55.654;37.264;2022-10-29T09:31:50;98631.28;;;10.02;86.04
64821;BME280;51256;55.654;37.264;2022-10-29T09:37:03;98622.28;;;9.95;86.82
64821;BME280;51256;55.654;37.264;2022-10-29T09:39:38;98619.84;;;10.02;87.12
64821;BME280;51256;55.654;37.264;2022-10-29T09:42:10;98615.38;;;10.02;87.31
64821;BME280;51256;55.654;37.264;2022-10-29T09:52:38;98614.88;;;10.07;87.72
64821;BME280;51256;55.654;37.264;2022-10-29T09:55:06;98610.06;;;10.02;87.61
64821;BME280;51256;55.654;37.264;2022-10-29T09:57:35;98601.44;;;10.00;87.93
64821;BME280;51256;55.654;37.264;2022-10-29T10:00:06;98604.88;;;9.93;88.23
64821;BME280;51256;55.654;37.264;2022-10-29T10:02:42;98597.13;;;9.99;88.27
64821;BME280;51256;55.654;37.264;2022-10-29T10:07:36;98595.47;;;9.98;88.10
64821;BME280;51256;55.654;37.264;2022-10-29T10:10:04;98597.00;;;10.09;88.30
64821;BME280;51256;55.654;37.264;2022-10-29T10:15:27;98589.53;;;10.21;88.10
64821;BME280;51256;55.654;37.264;2022-10-29T10:20:27;98579.94;;;10.12;87.51
64821;BME280;51256;55.654;37.264;2022-10-29T10:22:53;98578.09;;;10.12;87.70
64821;BME280;51256;55.654;37.264;2022-10-29T10:25:32;98577.44;;;10.18;87.89
64821;BME280;51256;55.654;37.264;2022-10-29T10:28:02;98561.69;;;10.17;87.28
64821;BME280;51256;55.654;37.264;2022-10-29T10:30:28;98553.75;;;10.17;87.40
64821;BME280;51256;55.654;37.264;2022-10-29T10:33:09;98545.13;;;10.15;87.27
64821;BME280;51256;55.654;37.264;2022-10-29T10:35:34;98528.03;;;10.17;87.04
64821;BME280;51256;55.654;37.264;2022-10-29T10:38:06;98543.63;;;10.20;87.29
64821;BME280;51256;55.654;37.264;2022-10-29T10:40:32;98539.81;;;10.15;86.20
64821;BME280;51256;55.654;37.264;2022-10-29T10:42:58;98530.69;;;10.17;86.55
64821;BME280;51256;55.654;37.264;2022-10-29T10:45:34;98526.25;;;10.18;86.79
64821;BME280;51256;55.654;37.264;2022-10-29T10:48:00;98526.22;;;10.26;86.97
64821;BME280;51256;55.654;37.264;2022-10-29T10:50:30;98524.88;;;10.30;86.16
64821;BME280;51256;55.654;37.264;2022-10-29T10:52:58;98520.25;;;10.32;86.53
64821;BME280;51256;55.654;37.264;2022-10-29T10:55:38;98508.66;;;10.33;86.51
64821;BME280;51256;55.654;37.264;2022-10-29T11:01:09;98506.19;;;10.40;86.54
64821;BME280;51256;55.654;37.264;2022-10-29T11:03:41;98507.34;;;10.37;86.57
64821;BME280;51256;55.654;37.264;2022-10-29T11:08:41;98488.41;;;10.32;86.21
64821;BME280;51256;55.654;37.264;2022-10-29T11:13:38;98491.91;;;10.25;86.18
64821;BME280;51256;55.654;37.264;2022-10-29T11:16:19;98484.78;;;10.25;86.18
64821;BME280;51256;55.654;37.264;2022-10-29T11:18:59;98483.13;;;10.32;86.58
64821;BME280;51256;55.654;37.264;2022-10-29T11:21:48;98480.81;;;10.37;86.35
64821;BME280;51256;55.654;37.264;2022-10-29T11:24:36;98469.88;;;10.41;86.55
64821;BME280;51256;55.654;37.264;2022-10-29T11:30:14;98460.91;;;10.33;86.48
64821;BME280;51256;55.654;37.264;2022-10-29T11:37:59;98470.22;;;10.46;86.63
64821;BME280;51256;55.654;37.264;2022-10-29T11:40:40;98461.25;;;10.47;86.12
64821;BME280;51256;55.654;37.264;2022-10-29T11:43:10;98452.44;;;10.46;86.72
64821;BME280;51256;55.654;37.264;2022-10-29T11:51:50;98451.94;;;10.34;86.24
64821;BME280;51256;55.654;37.264;2022-10-29T11:54:58;98445.16;;;10.32;85.54
64821;BME280;51256;55.654;37.264;2022-10-29T12:00:00;98436.03;;;10.26;85.77
64821;BME280;51256;55.654;37.264;2022-10-29T12:16:28;98428.25;;;10.00;85.70
64821;BME280;51256;55.654;37.264;2022-10-29T12:19:11;98424.78;;;9.99;85.85
64821;BME280;51256;55.654;37.264;2022-10-29T12:24:45;98421.78;;;10.02;86.79
64821;BME280;51256;55.654;37.264;2022-10-29T12:27:22;98422.63;;;10.11;86.00
64821;BME280;51256;55.654;37.264;2022-10-29T12:30:03;98417.00;;;10.14;85.85
64821;BME280;51256;55.654;37.264;2022-10-29T12:41:05;98402.06;;;10.13;86.60
64821;BME280;51256;55.654;37.264;2022-10-29T12:43:34;98401.22;;;10.13;86.24
64821;BME280;51256;55.654;37.264;2022-10-29T12:56:36;98373.41;;;10.09;86.04
64821;BME280;51256;55.654;37.264;2022-10-29T12:59:27;98375.56;;;10.05;86.43
64821;BME280;51256;55.654;37.264;2022-10-29T13:01:54;98370.59;;;10.02;86.17
64821;BME280;51256;55.654;37.264;2022-10-29T13:04:30;98372.09;;;10.04;86.23
64821;BME280;51256;55.654;37.264;2022-10-29T13:07:05;98371.25;;;10.12;86.84
64821;BME280;51256;55.654;37.264;2022-10-29T13:09:46;98354.50;;;10.12;87.20
64821;BME280;51256;55.654;37.264;2022-10-29T13:12:12;98355.81;;;10.16;87.23
64821;BME280;51256;55.654;37.264;2022-10-29T13:19:56;98351.19;;;10.18;86.70
64821;BME280;51256;55.654;37.264;2022-10-29T13:22:33;98351.34;;;10.16;86.98
64821;BME280;51256;55.654;37.264;2022-10-29T13:30:35;98338.06;;;10.25;87.29
64821;BME280;51256;55.654;37.264;2022-10-29T13:35:58;98335.28;;;10.18;87.03
64821;BME280;51256;55.654;37.264;2022-10-29T13:41:25;98320.72;;;10.05;86.90
64821;BME280;51256;55.654;37.264;2022-10-29T13:44:00;98317.38;;;10.12;87.07
64821;BME280;51256;55.654;37.264;2022-10-29T13:49:08;98309.09;;;10.15;87.08
64821;BME280;51256;55.654;37.264;2022-10-29T13:51:43;98306.44;;;10.15;86.71
64821;BME280;51256;55.654;37.264;2022-10-29T13:54:26;98297.00;;;10.12;87.12
64821;BME280;51256;55.654;37.264;2022-10-29T13:56:59;98294.50;;;10.11;87.22
64821;BME280;51256;55.654;37.264;2022-10-29T14:00:15;98290.88;;;10.12;86.59
64821;BME280;51256;55.654;37.264;2022-10-29T14:02:36;98289.69;;;10.14;86.88
64821;BME280;51256;55.654;37.264;2022-10-29T14:05:37;98289.34;;;10.17;87.49
64821;BME280;51256;55.654;37.264;2022-10-29T14:08:20;98294.47;;;10.19;87.48
64821;BME280;51256;55.654;37.264;2022-10-29T14:11:01;98283.56;;;10.14;87.09
64821;BME280;51256;55.654;37.264;2022-10-29T14:13:47;98277.75;;;10.10;86.80
64821;BME280;51256;55.654;37.264;2022-10-29T14:16:14;98276.63;;;10.04;86.99
64821;BME280;51256;55.654;37.264;2022-10-29T14:18:41;98269.19;;;10.00;87.29
64821;BME280;51256;55.654;37.264;2022-10-29T14:23:54;98260.03;;;10.11;87.01
64821;BME280;51256;55.654;37.264;2022-10-29T14:26:20;98262.34;;;10.14;87.18
64821;BME280;51256;55.654;37.264;2022-10-29T14:28:47;98241.47;;;10.11;87.31
64821;BME280;51256;55.654;37.264;2022-10-29T14:31:23;98252.22;;;10.17;87.09
64821;BME280;51256;55.654;37.264;2022-10-29T14:33:53;98251.03;;;10.20;87.46
64821;BME280;51256;55.654;37.264;2022-10-29T14:36:30;98248.22;;;10.21;87.91
64821;BME280;51256;55.654;37.264;2022-10-29T14:41:28;98234.81;;;10.23;87.57
64821;BME280;51256;55.654;37.264;2022-10-29T14:44:10;98234.63;;;10.25;87.46
64821;BME280;51256;55.654;37.264;2022-10-29T14:46:41;98232.31;;;10.21;87.26
64821;BME280;51256;55.654;37.264;2022-10-29T14:49:20;98224.34;;;10.21;87.31
64821;BME280;51256;55.654;37.264;2022-10-29T14:52:04;98225.00;;;10.23;87.49
64821;BME280;51256;55.654;37.264;2022-10-29T14:54:35;98218.22;;;10.21;87.17
64821;BME280;51256;55.654;37.264;2022-10-29T14:57:08;98208.09;;;10.25;87.34
64821;BME280;51256;55.654;37.264;2022-10-29T14:59:35;98205.44;;;10.25;87.35
64821;BME280;51256;55.654;37.264;2022-10-29T15:02:09;98202.13;;;10.22;87.13
64821;BME280;51256;55.654;37.264;2022-10-29T15:04:48;98206.63;;;10.22;87.69
64821;BME280;51256;55.654;37.264;2022-10-29T15:09:50;98187.06;;;10.23;87.28
64821;BME280;51256;55.654;37.264;2022-10-29T15:12:33;98188.72;;;10.24;87.25
64821;BME280;51256;55.654;37.264;2022-10-29T15:15:10;98178.41;;;10.29;87.33
64821;BME280;51256;55.654;37.264;2022-10-29T15:17:41;98172.75;;;10.32;87.79
64821;BME280;51256;55.654;37.264;2022-10-29T15:20:25;98165.78;;;10.31;87.74
64821;BME280;51256;55.654;37.264;2022-10-29T15:22:54;98168.13;;;10.26;87.20
64821;BME280;51256;55.654;37.264;2022-10-29T15:25:30;98157.03;;;10.22;87.32
64821;BME280;51256;55.654;37.264;2022-10-29T15:27:57;98151.75;;;10.22;87.39
64821;BME280;51256;55.654;37.264;2022-10-29T15:30:33;98152.41;;;10.25;87.12
64821;BME280;51256;55.654;37.264;2022-10-29T15:33:01;98141.69;;;10.18;87.49
64821;BME280;51256;55.654;37.264;2022-10-29T15:35:28;98154.88;;;10.26;87.39
64821;BME280;51256;55.654;37.264;2022-10-29T15:37:54;98152.53;;;10.31;87.61
64821;BME280;51256;55.654;37.264;2022-10-29T15:40:22;98146.88;;;10.34;87.11
64821;BME280;51256;55.654;37.264;2022-10-29T15:42:48;98145.88;;;10.35;87.40
64821;BME280;51256;55.654;37.264;2022-10-29T15:45:15;98144.06;;;10.36;87.34
64821;BME280;51256;55.654;37.264;2022-10-29T15:48:34;98142.25;;;10.36;86.65